Winston, New Mexico
Current Conditions -  °F | °C
As of 6:53 AM on Thursday 18 Dec 2014 (Local Time) from KTCS Reporting Station
Broken Clouds Broken Clouds  
Wind Chill: 36°   Ceiling: 7000
Heat Index: 36°   Visibility: 10mi
Dew Point: 28°   Wind: 3mph
Humidity: 73%   Direction: 280°W
Pressure: 30.13"   Gusts: NA
Location:  33.33°N, 107.65°W
Report Text: KTCS 181353Z AUTO 28003KT 10SM BKN070 02/M02 A3013 RMK AO2 SLP188 T00221022 TSNO
Loading
Personal Weather Stations






























Interactive Weather Map New forecast layout! Learn more

10-Day Weather Forecast

Advertisements
Track Severe Weather on mobile